Overview Statistics Trail Chart Weather Telemetry Raw packets
 

This is the latest recevied weather packets stored in our database for station/object HP3ICC-22. If no packets are shown the sender has not sent any weather packets the latest 10 day(s).

<< 33 34 35 36 37 38 39 >>
Time Temp. Humidity Pressure Rain* Wind** Luminosity Snow
1777211882 11.67° C 77% 1014 hPa 0 mm - - -
1777211822 11.67° C 77% 1014 hPa 0 mm - - -
1777210681 11.67° C 77% 1014 hPa 0 mm - - -
1777210621 11.67° C 77% 1014 hPa 0 mm - - -
1777209481 11.11° C 87% 1013 hPa 0 mm - - -
1777209421 11.11° C 87% 1013 hPa 0 mm - - -
1777208280 11.11° C 86% 1014 hPa 0 mm - - -
1777208220 11.11° C 86% 1014 hPa 0 mm - - -
1777207080 8.89° C 92% 1014 hPa 0 mm - - -
1777207020 8.89° C 92% 1014 hPa 0 mm - - -
1777205879 9.44° C 82% 1013 hPa 0 mm - - -
1777205819 9.44° C 82% 1013 hPa 0 mm - - -
1777204679 8.89° C 91% 1014 hPa 0 mm - - -
1777204618 8.89° C 91% 1014 hPa 0 mm - - -
1777203478 9.44° C 82% 1014 hPa 0 mm - - -
1777203418 9.44° C 82% 1014 hPa 0 mm - - -
1777202277 8.33° C 92% 1013 hPa 0 mm - - -
1777202217 8.33° C 92% 1013 hPa 0 mm - - -
1777201077 8.89° C 92% 1014 hPa 0 mm - - -
1777201017 8.89° C 92% 1014 hPa 0 mm - - -
1777199877 9.44° C 82% 1014 hPa 0 mm - - -
1777199816 9.44° C 82% 1014 hPa 0 mm - - -
1777198676 8.33° C 92% 1013 hPa 0 mm - - -
1777198616 8.33° C 92% 1013 hPa 0 mm - - -
1777197476 8.89° C 92% 1013 hPa 0 mm - - -

* Rain latest hour (hover to see other rain measurements)
** Current wind speed in m/s (hover to see current wind gust speed)